Time;durP1;ratioP1;P1;durP2;ratioP2;P2;SDS_P1;SDS_P2;PMS_P1;PMS_P2;Temp;Humidity;BMP_temperature;BMP_pressure;BME280_temperature;BME280_humidity;BME280_pressure;Samples;Min_cycle;Max_cycle;Signal;HPM_P1;HPM_P2
2020/12/08 00:00:14;;;;;;;21.97;11.15;;;;;;;-2.13;69.70;100273.97;1762464;81;25715;-51
2020/12/08 00:02:56;;;;;;;24.30;11.33;;;;;;;-2.14;69.60;100287.45;1732059;82;25750;-51
2020/12/08 00:05:23;;;;;;;19.42;9.50;;;;;;;-2.19;69.67;100278.83;1762273;81;25760;-52
2020/12/08 00:07:51;;;;;;;17.42;10.13;;;;;;;-2.19;69.74;100288.11;1731986;82;26397;-53
2020/12/08 00:10:19;;;;;;;18.32;9.78;;;;;;;-2.21;69.70;100282.23;1762552;81;25705;-47
2020/12/08 00:12:51;;;;;;;21.25;12.15;;;;;;;-2.22;69.76;100268.67;1730667;82;25649;-47
2020/12/08 00:15:18;;;;;;;23.20;11.18;;;;;;;-2.23;69.78;100280.83;1738347;81;25718;-53
2020/12/08 00:17:46;;;;;;;18.00;10.30;;;;;;;-2.23;69.88;100280.83;1732550;82;26949;-53
2020/12/08 00:20:13;;;;;;;20.08;10.10;;;;;;;-2.24;69.91;100284.00;1762656;81;25891;-52
2020/12/08 00:22:40;;;;;;;23.07;11.78;;;;;;;-2.23;69.99;100290.93;1732383;82;25672;-48
2020/12/08 00:25:08;;;;;;;20.32;11.03;;;;;;;-2.23;69.93;100288.28;1762669;81;25742;-46
2020/12/08 00:27:39;;;;;;;19.70;10.43;;;;;;;-2.23;70.06;100282.98;1730855;82;25687;-50
2020/12/08 00:30:12;;;;;;;20.45;11.53;;;;;;;-2.23;69.92;100279.00;1762722;81;26368;-50
2020/12/08 00:32:41;;;;;;;20.17;10.43;;;;;;;-2.22;69.92;100287.75;1732308;82;25734;-55
2020/12/08 00:35:11;;;;;;;24.35;11.57;;;;;;;-2.21;69.94;100286.20;1762800;81;26325;-50
2020/12/08 00:37:44;;;;;;;19.73;10.75;;;;;;;-2.22;69.85;100278.48;1744548;81;26026;-51
2020/12/08 00:40:11;;;;;;;18.62;11.43;;;;;;;-2.20;69.92;100284.36;1732566;82;26287;-51
2020/12/08 00:42:42;;;;;;;22.60;11.57;;;;;;;-2.21;69.79;100282.23;1762709;81;25899;-53
2020/12/08 00:45:10;;;;;;;18.92;10.45;;;;;;;-2.23;69.83;100283.47;1732342;82;25747;-52
2020/12/08 00:47:39;;;;;;;23.57;11.97;;;;;;;-2.21;69.82;100310.06;1762755;81;25819;-55
2020/12/08 00:50:07;;;;;;;20.50;11.35;;;;;;;-2.21;69.72;100287.53;1732178;82;25348;-53
2020/12/08 00:52:33;;;;;;;22.00;11.25;;;;;;;-2.23;69.70;100302.02;1762205;81;25638;-50
2020/12/08 00:55:00;;;;;;;25.15;11.97;;;;;;;-2.23;69.66;100298.05;1732186;82;27261;-53
2020/12/08 00:57:26;;;;;;;22.80;12.15;;;;;;;-2.23;69.54;100290.93;1762123;81;25756;-52
2020/12/08 00:59:53;;;;;;;21.12;11.05;;;;;;;-2.23;69.36;100271.55;1732082;82;25672;-52
2020/12/08 01:02:20;;;;;;;23.18;12.28;;;;;;;-2.23;69.35;100288.28;1762076;81;25640;-54
2020/12/08 01:04:46;;;;;;;19.45;11.05;;;;;;;-2.24;69.08;100297.25;1746576;81;25576;-51
2020/12/08 01:07:13;;;;;;;24.57;11.83;;;;;;;-2.24;69.08;100293.27;1746462;82;26244;-50
2020/12/08 01:09:40;;;;;;;23.73;11.80;;;;;;;-2.24;69.17;100291.15;1746455;82;25636;-52
2020/12/08 01:12:06;;;;;;;16.35;10.63;;;;;;;-2.23;69.01;100284.80;1746566;82;26414;-53
2020/12/08 01:14:33;;;;;;;23.42;10.88;;;;;;;-2.22;68.72;100287.75;1746667;81;25782;-53
2020/12/08 01:17:02;;;;;;;24.82;11.22;;;;;;;-2.24;68.62;100287.97;1746668;81;26023;-53
2020/12/08 01:19:29;;;;;;;22.73;11.03;;;;;;;-2.23;68.69;100291.42;1746568;82;25810;-53
2020/12/08 01:21:55;;;;;;;21.35;11.12;;;;;;;-2.25;68.54;100288.99;1746497;82;26257;-52
2020/12/08 01:24:22;;;;;;;19.75;10.35;;;;;;;-2.24;68.74;100287.17;1746593;82;25735;-53
2020/12/08 01:26:49;;;;;;;17.10;9.75;;;;;;;-2.23;68.54;100302.85;1746499;82;25642;-50
2020/12/08 01:29:16;;;;;;;19.92;10.40;;;;;;;-2.24;68.43;100278.70;1746528;82;25681;-52
2020/12/08 01:31:42;;;;;;;18.65;9.45;;;;;;;-2.23;68.28;100273.70;1746512;82;27156;-54
2020/12/08 01:34:09;;;;;;;21.17;9.88;;;;;;;-2.22;68.22;100267.87;1746568;82;26007;-53
2020/12/08 01:36:36;;;;;;;19.40;10.38;;;;;;;-2.23;68.37;100279.50;1746575;81;25680;-53
2020/12/08 01:39:03;;;;;;;18.57;9.73;;;;;;;-2.24;68.25;100277.90;1746603;81;25309;-51
2020/12/08 01:41:30;;;;;;;18.87;9.85;;;;;;;-2.25;67.96;100283.70;1746619;82;25677;-53
2020/12/08 01:43:57;;;;;;;18.37;9.13;;;;;;;-2.25;68.20;100273.09;1746572;82;25985;-52
2020/12/08 01:46:27;;;;;;;19.70;9.88;;;;;;;-2.26;67.81;100280.77;1746409;81;26054;-54
2020/12/08 01:48:54;;;;;;;21.97;10.82;;;;;;;-2.27;68.10;100279.94;1746643;82;25576;-48
2020/12/08 01:51:23;;;;;;;20.82;10.43;;;;;;;-2.27;68.10;100283.91;1745323;82;25838;-53
2020/12/08 01:53:51;;;;;;;19.02;9.05;;;;;;;-2.27;68.01;100286.56;1732358;82;25670;-53
2020/12/08 01:56:19;;;;;;;16.75;9.08;;;;;;;-2.28;67.88;100280.98;1762680;81;25721;-53
2020/12/08 01:58:47;;;;;;;21.90;9.23;;;;;;;-2.27;68.22;100275.97;1732286;82;25643;-52
2020/12/08 02:01:15;;;;;;;20.15;10.18;;;;;;;-2.24;68.12;100281.34;1762622;81;25593;-55
2020/12/08 02:03:42;;;;;;;16.55;8.60;;;;;;;-2.26;68.14;100274.14;1762726;81;25641;-54
2020/12/08 02:06:09;;;;;;;21.95;9.60;;;;;;;-2.25;68.04;100263.82;1732317;82;25788;-53
2020/12/08 02:08:37;;;;;;;20.45;10.03;;;;;;;-2.26;68.01;100257.72;1762675;81;26855;-54
2020/12/08 02:11:05;;;;;;;19.48;11.00;;;;;;;-2.26;68.07;100267.52;1732334;82;25783;-50
2020/12/08 02:13:33;;;;;;;19.67;9.35;;;;;;;-2.27;68.09;100274.64;1762719;81;25638;-49
2020/12/08 02:16:01;;;;;;;18.48;9.95;;;;;;;-2.26;68.28;100272.30;1730704;82;25654;-50
2020/12/08 02:18:28;;;;;;;19.27;9.83;;;;;;;-2.24;68.24;100269.95;1762701;81;25637;-54
2020/12/08 02:21:00;;;;;;;15.75;8.80;;;;;;;-2.23;68.37;100276.36;1732364;82;25798;-53
2020/12/08 02:23:28;;;;;;;20.10;9.65;;;;;;;-2.20;68.47;100273.75;1762568;81;25660;-52
2020/12/08 02:25:59;;;;;;;14.73;8.63;;;;;;;-2.19;68.27;100268.76;1730716;82;25651;-54
2020/12/08 02:28:26;;;;;;;16.55;9.40;;;;;;;-2.18;68.09;100265.89;1762682;81;25772;-55
2020/12/08 02:30:54;;;;;;;19.48;9.48;;;;;;;-2.18;68.19;100276.48;1732263;82;25752;-51
2020/12/08 02:33:29;;;;;;;22.65;10.93;;;;;;;-2.17;68.21;100282.59;1762643;81;25745;-55
2020/12/08 02:35:56;;;;;;;18.73;9.10;;;;;;;-2.18;68.31;100275.16;1732178;82;25732;-55
2020/12/08 02:38:25;;;;;;;16.65;9.05;;;;;;;-2.17;68.37;100264.84;1762688;81;25662;-52
2020/12/08 02:40:53;;;;;;;18.77;9.88;;;;;;;-2.15;68.17;100278.66;1732236;82;25690;-55
2020/12/08 02:43:21;;;;;;;19.10;9.55;;;;;;;-2.15;68.37;100266.73;1762461;81;25699;-52
2020/12/08 02:45:50;;;;;;;16.95;9.30;;;;;;;-2.14;68.34;100269.69;1732148;82;26678;-53
2020/12/08 02:48:17;;;;;;;20.00;9.53;;;;;;;-2.13;68.27;100265.19;1762493;81;25666;-51
2020/12/08 02:50:46;;;;;;;18.02;8.60;;;;;;;-2.13;68.41;100268.67;1730325;82;25824;-52
2020/12/08 02:53:13;;;;;;;11.97;6.45;;;;;;;-2.11;68.45;100258.64;1762193;81;25613;-52
2020/12/08 02:55:40;;;;;;;15.32;8.50;;;;;;;-2.08;68.48;100274.59;1730414;82;25628;-54
2020/12/08 02:58:07;;;;;;;18.10;10.03;;;;;;;-2.07;68.48;100277.03;1761876;81;26236;-52
2020/12/08 03:00:33;;;;;;;20.08;9.38;;;;;;;-2.04;68.42;100280.25;1731848;82;25715;-53
2020/12/08 03:03:00;;;;;;;13.30;8.28;;;;;;;-2.03;68.45;100268.63;1761933;81;25582;-53
2020/12/08 03:05:27;;;;;;;15.03;7.95;;;;;;;-2.02;68.35;100285.64;1731751;82;26048;-51
2020/12/08 03:07:54;;;;;;;15.30;8.28;;;;;;;-2.03;68.30;100278.70;1762053;81;25683;-54
2020/12/08 03:10:20;;;;;;;14.53;8.25;;;;;;;-2.03;68.20;100274.73;1730310;82;25948;-52
2020/12/08 03:12:47;;;;;;;15.68;8.30;;;;;;;-2.04;67.98;100273.63;1761900;81;25693;-54
2020/12/08 03:15:14;;;;;;;13.83;7.97;;;;;;;-2.02;68.26;100274.23;1730372;82;25680;-53
2020/12/08 03:17:40;;;;;;;15.90;7.87;;;;;;;-2.01;68.41;100273.18;1761952;81;25649;-52
2020/12/08 03:20:07;;;;;;;14.63;7.35;;;;;;;-1.99;68.25;100270.61;1730286;82;25590;-54
2020/12/08 03:22:35;;;;;;;12.43;8.00;;;;;;;-1.98;68.10;100276.71;1761964;81;26243;-54
2020/12/08 03:25:04;;;;;;;13.05;8.28;;;;;;;-1.98;68.06;100267.44;1731633;82;25639;-55
2020/12/08 03:27:30;;;;;;;16.45;8.18;;;;;;;-1.98;68.10;100261.61;1735856;81;26086;-53
2020/12/08 03:29:57;;;;;;;14.78;8.33;;;;;;;-1.97;68.02;100266.41;1731890;82;25808;-52
2020/12/08 03:32:25;;;;;;;13.55;7.42;;;;;;;-1.98;68.00;100266.91;1762027;81;26282;-54
2020/12/08 03:34:52;;;;;;;16.73;8.18;;;;;;;-1.96;68.17;100275.47;1730367;82;27080;-53
2020/12/08 03:37:18;;;;;;;14.47;7.53;;;;;;;-1.95;67.97;100266.46;1761928;81;25721;-54
2020/12/08 03:39:46;;;;;;;12.80;8.00;;;;;;;-1.94;68.07;100276.05;1731857;82;25715;-53
2020/12/08 03:42:12;;;;;;;12.65;7.47;;;;;;;-1.92;68.07;100271.31;1761956;81;25606;-54
2020/12/08 03:44:39;;;;;;;13.13;7.12;;;;;;;-1.93;67.83;100265.71;1730359;82;26246;-53
2020/12/08 03:47:06;;;;;;;10.28;6.15;;;;;;;-1.93;67.87;100273.66;1761960;81;26759;-50
2020/12/08 03:49:32;;;;;;;11.30;6.42;;;;;;;-1.93;67.49;100275.52;1730220;82;25636;-52
2020/12/08 03:51:59;;;;;;;11.95;6.87;;;;;;;-1.96;67.38;100251.61;1761872;81;25645;-54
2020/12/08 03:54:26;;;;;;;11.12;6.37;;;;;;;-1.95;67.63;100277.06;1731835;82;25637;-49
2020/12/08 03:56:53;;;;;;;12.93;6.60;;;;;;;-1.94;67.50;100273.39;1762140;81;26295;-52
2020/12/08 03:59:19;;;;;;;14.38;6.78;;;;;;;-1.94;67.53;100276.54;1731958;81;26332;-51
2020/12/08 04:01:48;;;;;;;11.48;6.30;;;;;;;-1.93;67.76;100275.52;1730273;82;25730;-54
2020/12/08 04:04:17;;;;;;;10.78;5.75;;;;;;;-1.92;67.80;100275.30;1762083;81;25596;-49
2020/12/08 04:06:44;;;;;;;11.15;6.97;;;;;;;-1.89;67.60;100266.06;1730114;82;25686;-53
2020/12/08 04:09:10;;;;;;;9.48;5.75;;;;;;;-1.88;67.63;100263.71;1762053;81;25606;-54
2020/12/08 04:11:37;;;;;;;14.95;6.72;;;;;;;-1.88;67.36;100271.14;1731904;82;25765;-52
2020/12/08 04:14:05;;;;;;;11.60;6.60;;;;;;;-1.88;67.48;100254.44;1761705;81;25689;-55
2020/12/08 04:16:33;;;;;;;10.43;6.83;;;;;;;-1.89;67.29;100252.80;1732007;82;25621;-54
2020/12/08 04:19:01;;;;;;;10.35;6.62;;;;;;;-1.92;67.50;100263.36;1762360;81;25677;-54
2020/12/08 04:21:29;;;;;;;10.88;5.83;;;;;;;-1.92;67.55;100255.94;1731896;82;25697;-55
2020/12/08 04:24:00;;;;;;;10.88;5.50;;;;;;;-1.92;67.47;100266.54;1762089;81;26683;-55
2020/12/08 04:26:32;;;;;;;11.08;6.33;;;;;;;-1.93;67.47;100260.41;1731851;82;26242;-55
2020/12/08 04:29:00;;;;;;;9.43;5.87;;;;;;;-1.94;67.65;100247.37;1761962;81;25609;-55
2020/12/08 04:31:28;;;;;;;11.83;6.47;;;;;;;-1.95;67.54;100250.55;1731840;82;25941;-50
2020/12/08 04:33:55;;;;;;;9.98;6.05;;;;;;;-1.96;67.63;100264.86;1761918;81;25640;-56
2020/12/08 04:36:23;;;;;;;9.63;6.00;;;;;;;-1.97;67.55;100263.23;1730345;82;26266;-56
2020/12/08 04:38:51;;;;;;;8.95;5.80;;;;;;;-1.99;67.50;100277.73;1761838;81;25828;-55
2020/12/08 04:41:24;;;;;;;9.08;6.03;;;;;;;-1.98;67.63;100268.76;1731899;82;25763;-56
2020/12/08 04:43:53;;;;;;;10.68;6.42;;;;;;;-2.00;67.42;100274.28;1761946;81;26371;-56
2020/12/08 04:46:22;;;;;;;11.38;5.85;;;;;;;-2.02;67.53;100276.36;1732098;82;26308;-53
2020/12/08 04:48:50;;;;;;;;;;;;;;;-2.03;67.50;100271.28;1764899;81;25812;-54
2020/12/08 04:51:17;;;;;;;10.30;5.67;;;;;;;-2.05;67.54;100277.33;1761843;81;25590;-55
2020/12/08 04:53:47;;;;;;;9.35;6.55;;;;;;;-2.07;67.62;100304.86;1730394;82;25742;-54
2020/12/08 04:56:14;;;;;;;;;;;;;;;-2.08;67.54;100287.36;1764785;81;25675;-51
2020/12/08 04:58:44;;;;;;;9.35;5.58;;;;;;;-2.07;67.74;100292.13;1762142;81;25704;-54
2020/12/08 05:01:29;;;;;;;9.50;5.30;;;;;;;-2.08;67.61;100303.76;1732131;82;27068;-53
2020/12/08 05:04:03;;;;;;;10.38;5.90;;;;;;;-2.10;67.48;100291.25;1762039;81;25240;-53
2020/12/08 05:06:30;;;;;;;8.93;5.55;;;;;;;-2.13;67.42;100286.39;1730476;82;26435;-54
2020/12/08 05:09:05;;;;;;;9.10;6.00;;;;;;;-2.14;67.53;100294.07;1762136;81;25681;-55
2020/12/08 05:11:33;;;;;;;9.45;6.05;;;;;;;-2.15;67.48;100300.39;1732138;82;25689;-52
2020/12/08 05:14:07;;;;;;;8.55;4.90;;;;;;;-2.16;67.60;100283.69;1762169;81;25735;-56
2020/12/08 05:16:34;;;;;;;11.15;5.87;;;;;;;-2.14;67.56;100294.87;1730558;82;25671;-56
2020/12/08 05:19:09;;;;;;;11.05;7.10;;;;;;;-2.17;67.42;100276.77;1762139;81;25832;-56
2020/12/08 05:21:48;;;;;;;9.53;5.83;;;;;;;-2.17;67.44;100286.56;1730473;82;25698;-54
2020/12/08 05:24:26;;;;;;;10.68;6.05;;;;;;;-2.16;67.53;100261.66;1761881;81;26444;-52
2020/12/08 05:26:59;;;;;;;9.65;6.10;;;;;;;-2.16;67.63;100273.09;1745761;82;25733;-53
2020/12/08 05:29:27;;;;;;;10.03;6.40;;;;;;;-2.15;67.61;100273.89;1745503;82;25696;-53
2020/12/08 05:31:55;;;;;;;9.28;5.62;;;;;;;-2.16;67.50;100275.74;1746481;82;25663;-52
2020/12/08 05:34:24;;;;;;;12.25;6.75;;;;;;;-2.14;67.64;100281.62;1746551;82;25685;-53
2020/12/08 05:36:53;;;;;;;12.18;6.25;;;;;;;-2.14;67.56;100283.47;1746643;82;25630;-53
2020/12/08 05:39:22;;;;;;;10.03;6.20;;;;;;;-2.14;67.69;100284.80;1746700;82;26749;-53
2020/12/08 05:41:50;;;;;;;10.82;6.30;;;;;;;-2.13;67.74;100273.14;1746564;81;25747;-54
2020/12/08 05:44:23;;;;;;;10.65;6.90;;;;;;;-2.12;67.73;100284.05;1746382;82;25602;-50
2020/12/08 05:46:52;;;;;;;11.22;7.12;;;;;;;-2.11;67.85;100285.64;1746407;82;25725;-54
2020/12/08 05:49:20;;;;;;;11.35;6.33;;;;;;;-2.07;67.70;100286.30;1746576;82;25845;-53
2020/12/08 05:51:50;;;;;;;11.80;6.42;;;;;;;-2.07;67.68;100292.93;1746242;81;25886;-47
2020/12/08 05:54:21;;;;;;;12.65;6.90;;;;;;;-2.07;67.64;100288.16;1746435;82;25571;-54
2020/12/08 05:56:53;;;;;;;12.15;7.05;;;;;;;-2.06;67.87;100300.36;1746496;82;25671;-52
2020/12/08 05:59:27;;;;;;;11.20;7.03;;;;;;;-2.06;67.76;100289.75;1746444;82;25727;-54
2020/12/08 06:01:54;;;;;;;12.10;7.65;;;;;;;-2.03;67.87;100295.14;1746678;82;25788;-54
2020/12/08 06:04:21;;;;;;;13.43;8.03;;;;;;;-2.02;67.80;100286.16;1746598;82;26167;-56
2020/12/08 06:06:55;;;;;;;10.10;7.33;;;;;;;-2.02;67.55;100285.64;1746500;82;25773;-51
2020/12/08 06:09:29;;;;;;;11.60;6.95;;;;;;;-2.02;67.63;100286.96;1746542;82;25699;-54
2020/12/08 06:11:55;;;;;;;10.75;7.12;;;;;;;-2.02;67.64;100298.89;1746673;81;25642;-51
2020/12/08 06:14:36;;;;;;;16.17;8.18;;;;;;;-2.02;67.71;100279.53;1746497;82;25599;-55
2020/12/08 06:17:06;;;;;;;13.22;7.53;;;;;;;-2.00;67.54;100284.09;1746626;81;25710;-50
2020/12/08 06:19:35;;;;;;;11.65;7.67;;;;;;;-2.00;67.77;100294.16;1746385;82;25638;-54
2020/12/08 06:22:12;;;;;;;13.40;8.63;;;;;;;-1.98;67.60;100285.47;1746531;82;26302;-52
2020/12/08 06:24:54;;;;;;;11.68;7.83;;;;;;;-1.97;67.58;100292.39;1746575;82;25710;-55
2020/12/08 06:27:23;;;;;;;10.43;7.70;;;;;;;-1.96;67.78;100294.02;1746526;82;25714;-55
2020/12/08 06:29:53;;;;;;;11.88;8.28;;;;;;;-1.94;67.59;100294.60;1746530;82;27142;-54
2020/12/08 06:32:30;;;;;;;13.45;8.25;;;;;;;-1.92;67.62;100297.03;1746529;82;25661;-56
2020/12/08 06:35:11;;;;;;;14.25;7.83;;;;;;;-1.91;67.58;100297.30;1746494;82;25634;-52
2020/12/08 06:37:48;;;;;;;15.68;8.53;;;;;;;-1.91;67.62;100296.80;1746592;82;25681;-54
2020/12/08 06:40:21;;;;;;;12.95;8.20;;;;;;;-1.90;67.50;100296.28;1746560;82;25682;-55
2020/12/08 06:42:48;;;;;;;15.90;8.78;;;;;;;-1.91;67.59;100292.83;1746491;82;27154;-54
2020/12/08 06:45:22;;;;;;;20.55;8.63;;;;;;;-1.91;67.63;100297.30;1746452;81;25855;-54
2020/12/08 06:47:50;;;;;;;13.93;7.42;;;;;;;-1.91;67.67;100306.09;1745951;80;25608;-56
2020/12/08 06:50:28;;;;;;;13.27;7.17;;;;;;;-1.90;67.60;100316.16;1723394;80;25712;-59
2020/12/08 06:53:02;;;;;;;13.32;7.85;;;;;;;-1.91;67.73;100310.06;1761749;81;26223;-50
2020/12/08 06:55:34;;;;;;;18.92;8.98;;;;;;;-1.92;67.64;100299.16;1760509;81;26671;-61
2020/12/08 06:58:05;;;;;;;15.80;8.23;;;;;;;-1.91;67.71;100307.41;1760247;81;25845;-60
2020/12/08 07:00:32;;;;;;;19.62;9.93;;;;;;;-1.91;67.80;100310.06;1761857;81;25711;-59
2020/12/08 07:03:01;;;;;;;16.75;9.08;;;;;;;-1.92;67.72;100308.44;1740525;80;25728;-57
2020/12/08 07:05:30;;;;;;;18.30;9.23;;;;;;;-1.93;67.69;100308.66;1741591;82;25697;-60
2020/12/08 07:08:02;;;;;;;15.65;9.10;;;;;;;-1.92;67.81;100315.59;1742692;82;25722;-60
2020/12/08 07:10:30;;;;;;;17.50;8.25;;;;;;;-1.92;67.83;100309.76;1742418;82;25754;-57
2020/12/08 07:12:57;;;;;;;17.77;9.10;;;;;;;-1.92;67.92;100304.98;1742576;82;25591;-61
2020/12/08 07:15:26;;;;;;;17.65;10.75;;;;;;;-1.90;67.76;100316.16;1742446;82;25680;-58
2020/12/08 07:18:05;;;;;;;19.45;9.80;;;;;;;-1.92;67.88;100312.41;1742540;81;25876;-57
2020/12/08 07:20:33;;;;;;;19.25;9.80;;;;;;;-1.91;67.90;100320.67;1742607;82;25777;-59
2020/12/08 07:23:06;;;;;;;17.17;9.40;;;;;;;-1.89;67.98;100318.59;1742351;82;25579;-57
2020/12/08 07:25:34;;;;;;;15.95;8.90;;;;;;;-1.86;68.07;100315.20;1761561;81;25611;-58
2020/12/08 07:28:02;;;;;;;17.75;9.23;;;;;;;-1.84;68.08;100313.12;1742474;82;25710;-59
2020/12/08 07:30:30;;;;;;;20.45;9.70;;;;;;;-1.83;67.85;100316.88;1740722;82;26426;-52
2020/12/08 07:33:11;;;;;;;17.65;9.33;;;;;;;-1.82;67.93;100319.00;1739246;82;26468;-55
2020/12/08 07:35:46;;;;;;;18.73;9.65;;;;;;;-1.82;67.82;100325.63;1740806;82;25694;-52
2020/12/08 07:38:13;;;;;;;20.35;10.28;;;;;;;-1.80;67.88;100321.73;1761582;81;25700;-55
2020/12/08 07:40:42;;;;;;;18.40;9.83;;;;;;;-1.81;67.79;100320.10;1742481;82;25583;-55
2020/12/08 07:43:09;;;;;;;17.45;10.10;;;;;;;-1.80;67.95;100328.36;1741298;82;26271;-57
2020/12/08 07:45:42;;;;;;;16.65;9.03;;;;;;;-1.76;67.89;100327.39;1740090;82;25921;-57
2020/12/08 07:48:18;;;;;;;13.18;8.38;;;;;;;-1.76;67.63;100332.69;1741138;82;25722;-55
2020/12/08 07:50:45;;;;;;;18.50;8.55;;;;;;;-1.75;67.49;100339.63;1742494;82;25769;-55
2020/12/08 07:53:13;;;;;;;12.75;8.20;;;;;;;-1.76;67.50;100341.97;1742386;82;25915;-58
2020/12/08 07:55:45;;;;;;;17.57;8.50;;;;;;;-1.75;67.55;100347.05;1761817;81;25670;-58
2020/12/08 07:58:12;;;;;;;14.73;8.28;;;;;;;-1.74;67.56;100347.36;1742486;82;26166;-59
2020/12/08 08:00:39;;;;;;;10.88;7.35;;;;;;;-1.74;67.25;100350.02;1742422;82;25731;-52
2020/12/08 08:03:06;;;;;;;11.38;7.72;;;;;;;-1.71;66.96;100360.14;1739642;82;25650;-57
2020/12/08 08:05:34;;;;;;;10.40;6.97;;;;;;;-1.72;66.90;100342.63;1743464;82;25588;-57
2020/12/08 08:08:00;;;;;;;13.20;8.93;;;;;;;-1.71;67.07;100346.88;1751496;81;26331;-57
2020/12/08 08:10:27;;;;;;;12.75;7.80;;;;;;;-1.70;66.65;100366.28;1751404;81;26105;-56
2020/12/08 08:12:54;;;;;;;13.35;7.72;;;;;;;-1.70;66.77;100353.02;1751364;81;25686;-57
2020/12/08 08:15:20;;;;;;;10.85;6.60;;;;;;;-1.68;66.84;100360.22;1751377;81;25734;-56
2020/12/08 08:17:47;;;;;;;11.88;7.28;;;;;;;-1.64;66.49;100360.58;1761630;81;26510;-56
2020/12/08 08:20:14;;;;;;;11.68;7.40;;;;;;;-1.65;66.59;100358.45;1742056;80;25650;-56
2020/12/08 08:22:41;;;;;;;12.35;7.45;;;;;;;-1.61;66.68;100358.80;1734192;82;25772;-54
2020/12/08 08:25:07;;;;;;;14.65;7.95;;;;;;;-1.59;66.48;100363.36;1746896;82;25829;-55
2020/12/08 08:27:34;;;;;;;11.55;7.25;;;;;;;-1.61;66.03;100362.25;1763457;81;25737;-55
2020/12/08 08:30:01;;;;;;;14.15;7.25;;;;;;;-1.59;66.37;100363.36;1763925;81;25658;-55
2020/12/08 08:32:28;;;;;;;13.03;7.83;;;;;;;-1.56;66.82;100361.06;1764045;80;25707;-56
2020/12/08 08:34:55;;;;;;;13.35;8.00;;;;;;;-1.52;66.90;100366.19;1764087;81;26343;-52
2020/12/08 08:37:22;;;;;;;22.02;9.10;;;;;;;-1.46;66.67;100353.88;1764111;81;25605;-54
2020/12/08 08:39:48;;;;;;;13.75;8.15;;;;;;;-1.44;66.41;100369.58;1763777;81;25713;-52
2020/12/08 08:42:15;;;;;;;16.55;8.55;;;;;;;-1.45;66.43;100366.63;1763891;81;25657;-53
2020/12/08 08:44:41;;;;;;;15.88;8.65;;;;;;;-1.46;66.16;100367.64;1763993;81;25658;-55
2020/12/08 08:47:08;;;;;;;14.58;7.65;;;;;;;-1.45;66.64;100360.78;1763934;80;26151;-53
2020/12/08 08:49:35;;;;;;;15.25;8.88;;;;;;;-1.46;66.46;100355.70;1763824;81;26331;-54
2020/12/08 08:52:02;;;;;;;18.48;9.00;;;;;;;-1.44;66.85;100360.29;1763913;81;25697;-57
2020/12/08 08:54:28;;;;;;;17.12;8.60;;;;;;;-1.42;66.63;100356.36;1744720;81;25804;-57
2020/12/08 08:56:55;;;;;;;17.25;8.78;;;;;;;-1.40;66.90;100357.46;1742507;80;25715;-56
2020/12/08 08:59:22;;;;;;;21.45;9.25;;;;;;;-1.39;66.91;100369.17;1733243;81;27139;-59
2020/12/08 09:01:48;;;;;;;14.20;8.30;;;;;;;-1.37;66.79;100360.46;1735825;81;25774;-54
2020/12/08 09:04:16;;;;;;;18.10;9.35;;;;;;;-1.37;66.69;100366.30;1735734;81;25650;-56
2020/12/08 09:06:43;;;;;;;19.37;9.68;;;;;;;-1.38;66.88;100355.37;1749843;81;25566;-55
2020/12/08 09:09:10;;;;;;;17.85;8.90;;;;;;;-1.34;67.12;100367.17;1749899;81;25755;-55
2020/12/08 09:11:36;;;;;;;14.40;9.90;;;;;;;-1.32;66.95;100361.11;1749644;81;26350;-54
2020/12/08 09:14:04;;;;;;;16.97;9.38;;;;;;;-1.30;66.93;100374.16;1749591;81;25695;-57
2020/12/08 09:16:31;;;;;;;19.87;10.65;;;;;;;-1.31;66.87;100376.02;1759923;81;25806;-57
2020/12/08 09:18:59;;;;;;;20.15;10.20;;;;;;;-1.30;66.93;100378.14;1729690;82;25632;-55
2020/12/08 09:21:26;;;;;;;18.90;10.72;;;;;;;-1.31;66.94;100365.40;1740797;82;25683;-55
2020/12/08 09:23:53;;;;;;;16.35;9.20;;;;;;;-1.29;67.15;100369.13;1740936;82;26154;-54
2020/12/08 09:26:20;;;;;;;17.25;9.48;;;;;;;-1.26;67.19;100370.83;1740640;82;25783;-55
2020/12/08 09:28:47;;;;;;;18.62;9.88;;;;;;;-1.25;67.09;100359.69;1740861;82;25602;-54
2020/12/08 09:31:17;;;;;;;16.90;9.55;;;;;;;-1.25;67.04;100359.16;1740509;82;25830;-49
2020/12/08 09:33:46;;;;;;;21.93;10.78;;;;;;;-1.22;67.00;100359.23;1740181;82;25635;-52
2020/12/08 09:36:13;;;;;;;20.87;10.27;;;;;;;-1.24;67.11;100359.45;1730170;82;25793;-47
2020/12/08 09:38:40;;;;;;;18.70;9.78;;;;;;;-1.25;67.16;100362.34;1740941;82;26309;-52
2020/12/08 09:41:08;;;;;;;18.48;10.08;;;;;;;-1.24;67.28;100366.09;1740826;82;25809;-51
2020/12/08 09:43:34;;;;;;;21.60;11.35;;;;;;;-1.22;67.37;100361.36;1740854;82;26008;-51
2020/12/08 09:46:02;;;;;;;17.30;9.43;;;;;;;-1.21;67.30;100375.43;1740924;82;26008;-53
2020/12/08 09:48:29;;;;;;;20.12;10.43;;;;;;;-1.24;67.25;100346.69;1740892;82;27935;-56
2020/12/08 09:50:56;;;;;;;21.95;10.98;;;;;;;-1.23;67.48;100364.23;1740805;82;25666;-53
2020/12/08 09:53:22;;;;;;;17.12;9.73;;;;;;;-1.21;67.61;100388.70;1741177;82;25710;-54
2020/12/08 09:55:49;;;;;;;24.30;11.48;;;;;;;-1.22;67.50;100365.87;1762205;81;26461;-53
2020/12/08 09:58:16;;;;;;;18.73;9.90;;;;;;;-1.23;67.65;100369.02;1704463;82;26327;-56
2020/12/08 10:00:43;;;;;;;24.60;11.18;;;;;;;-1.23;67.70;100365.04;1730065;82;26242;-59
2020/12/08 10:03:10;;;;;;;20.48;11.18;;;;;;;-1.19;67.67;100367.55;1704676;82;25633;-55
2020/12/08 10:05:37;;;;;;;23.00;11.18;;;;;;;-1.18;67.75;100379.76;1759828;81;25833;-57
2020/12/08 10:08:03;;;;;;;23.07;11.33;;;;;;;-1.16;67.85;100371.57;1729636;82;25824;-57
2020/12/08 10:10:30;;;;;;;20.15;11.57;;;;;;;-1.12;67.88;100379.38;1759823;81;25682;-59
2020/12/08 10:12:57;;;;;;;19.55;11.15;;;;;;;-1.09;67.98;100378.10;1760412;81;25736;-56
2020/12/08 10:15:23;;;;;;;24.12;9.95;;;;;;;-1.08;67.78;100385.04;1743168;82;25651;-60
2020/12/08 10:17:50;;;;;;;19.17;10.43;;;;;;;-1.05;67.92;100383.27;1743249;81;25635;-56
2020/12/08 10:20:17;;;;;;;22.22;10.30;;;;;;;-1.03;67.68;100383.84;1751455;81;25729;-59
2020/12/08 10:22:44;;;;;;;19.10;10.90;;;;;;;-1.02;67.93;100375.64;1751524;81;25672;-59
2020/12/08 10:25:11;;;;;;;16.35;10.43;;;;;;;-1.00;67.55;100382.85;1751646;81;26283;-57
2020/12/08 10:27:38;;;;;;;18.92;10.65;;;;;;;-1.01;67.58;100381.75;1751421;81;25650;-52
2020/12/08 10:30:05;;;;;;;23.85;11.55;;;;;;;-1.03;67.71;100395.25;1751482;81;25774;-52
2020/12/08 10:32:32;;;;;;;19.02;11.00;;;;;;;-1.03;67.63;100390.47;1751474;81;25746;-56
2020/12/08 10:34:59;;;;;;;21.05;10.88;;;;;;;-1.05;67.66;100385.91;1751610;81;25709;-58
2020/12/08 10:37:26;;;;;;;23.95;11.80;;;;;;;-1.06;67.81;100395.70;1751626;81;26151;-59
2020/12/08 10:39:52;;;;;;;19.50;10.78;;;;;;;-1.05;67.70;100388.05;1751679;81;25753;-58
2020/12/08 10:42:19;;;;;;;20.65;11.18;;;;;;;-1.07;67.84;100382.16;1751506;81;25718;-58
2020/12/08 10:44:46;;;;;;;17.67;11.43;;;;;;;-1.06;67.79;100378.98;1751502;81;25635;-55
2020/12/08 10:47:12;;;;;;;23.20;11.85;;;;;;;-1.07;67.88;100376.84;1751519;81;25680;-59
2020/12/08 10:49:39;;;;;;;20.20;11.35;;;;;;;-1.04;67.98;100379.05;1751414;81;25775;-60
2020/12/08 10:52:06;;;;;;;23.27;11.90;;;;;;;-1.03;67.97;100371.89;1747113;80;25691;-56
2020/12/08 10:54:33;;;;;;;23.87;12.70;;;;;;;-1.02;67.94;100374.81;1744161;81;25615;-55
2020/12/08 10:57:00;;;;;;;23.47;12.53;;;;;;;-1.02;67.83;100384.11;1721960;82;25797;-53
2020/12/08 10:59:27;;;;;;;19.92;11.83;;;;;;;-1.05;67.78;100368.12;1743700;81;25651;-57
2020/12/08 11:01:56;;;;;;;23.30;11.55;;;;;;;-1.04;67.81;100383.03;1748325;80;25781;-60
2020/12/08 11:04:23;;;;;;;18.87;10.45;;;;;;;-1.05;67.94;100376.09;1765006;79;25711;-58
2020/12/08 11:06:49;;;;;;;25.95;11.15;;;;;;;-1.04;67.86;100361.80;1736256;81;26052;-58
2020/12/08 11:09:17;;;;;;;25.37;11.55;;;;;;;-1.02;67.99;100365.52;1727357;82;25859;-56
2020/12/08 11:11:44;;;;;;;25.75;11.75;;;;;;;-1.02;68.03;100361.03;1727518;82;25750;-55
2020/12/08 11:14:10;;;;;;;24.95;12.55;;;;;;;-0.98;68.06;100361.38;1731653;81;27405;-59
2020/12/08 11:16:37;;;;;;;22.48;11.68;;;;;;;-0.97;68.03;100353.69;1727307;82;25754;-57
2020/12/08 11:19:04;;;;;;;21.33;12.13;;;;;;;-0.95;68.13;100350.30;1727774;82;25655;-53
2020/12/08 11:21:39;;;;;;;29.45;12.23;;;;;;;-0.90;67.94;100345.11;1727145;82;26301;-49